Atyray, Kazakhstan

1:00 AM +05 on July 25, 2016 (GMT +0500)
Atyrau | | Change Station

Elev -72 ft 47.12 °N, 51.83 °E | Updated 30 minutes ago

Clear
Clear
75 °F
Feels Like 75 °F
N
11
Wind Variable Wind from West

Today
High -- | Low -- °F
--% Chance of Precip.
Yesterday
High -- | Low -- °F
Precip. -- in
Pressure 29.68 in
Visibility -9999.0 miles
Clouds
Dew Point 64 °F
Humidity 69%
Rainfall 0.00 in
Snow Depth Not available.
6:03 AM 9:13 PM
Waning Gibbous, 73% visible
METAR UATG 241930Z 26005MPS CAVOK 24/18 Q1005 R32/CLRD70 NOSIG RMK QFE756/1008
Pressure 29.68 in
Visibility -9999.0 miles
Clouds
Dew Point 64 °F
Humidity 69%
Rainfall 0.00 in
Snow Depth Not available.
6:03 AM 9:13 PM
Waning Gibbous, 73% visible
METAR UATG 241930Z 26005MPS CAVOK 24/18 Q1005 R32/CLRD70 NOSIG RMK QFE756/1008

10-Day Weather Forecast

×

Almanac

Astronomy

Jul. 25, 2016 Rise Set
Actual Time
Civil Twilight
Nautical Twilight
Astronomical Twilight
Moon
Length of Visible Light
Length of Day
Tomorrow will be .
, % of the Moon is Illuminated

Today's Extremes

Country Highs Country Lows

Community

WunderPhotos

Upload Photos

1,927,176 photos uploaded!

WunderBlog® & News

Nearby

Air Quality

  Air Quality AQ Index Pollutant
Not available.

Snow Depth

Station Depth Elevation

Earthquake Activity

City Distance Mag. Time & Date
Minimum magnitude displayed is 2.5.

Coastal Water Temperatures

Place Temperature

Stations

Nearby Weather Stations

Station Location Temp. Windchill Dew Point Humidity Wind Precip. Elev Updated Type